Time;durP1;ratioP1;P1;durP2;ratioP2;P2;SDS_P1;SDS_P2;PMS_P1;PMS_P2;Temp;Humidity;BMP_temperature;BMP_pressure;BME280_temperature;BME280_humidity;BME280_pressure;Samples;Min_cycle;Max_cycle;Signal;HPM_P1;HPM_P2
2022/01/30 00:01:31;;;;;;;2.95;1.55;;;;;;;17.79;42.54;102448.28;5106412;28;20078;-50
2022/01/30 00:03:56;;;;;;;4.18;1.60;;;;;;;17.78;42.63;102441.19;5106185;28;20074;-46
2022/01/30 00:06:21;;;;;;;2.88;1.38;;;;;;;17.70;42.48;102421.09;5106104;28;20256;-50
2022/01/30 00:08:48;;;;;;;3.40;1.50;;;;;;;17.59;42.57;102414.91;5087220;28;20047;-51
2022/01/30 00:11:18;;;;;;;3.72;1.45;;;;;;;17.75;42.55;102428.81;5105836;28;20032;-49
2022/01/30 00:13:44;;;;;;;2.47;1.30;;;;;;;17.75;42.42;102447.66;5106420;28;20019;-52
2022/01/30 00:16:10;;;;;;;2.72;1.40;;;;;;;17.70;42.63;102437.25;5088170;28;20210;-51
2022/01/30 00:18:51;;;;;;;3.15;1.65;;;;;;;17.72;42.42;102447.91;5106335;28;20057;-52
2022/01/30 00:21:34;;;;;;;4.10;1.50;;;;;;;17.73;42.17;102452.28;5106023;28;20024;-52
2022/01/30 00:24:05;;;;;;;2.53;1.58;;;;;;;17.71;42.43;102444.34;5105387;28;20085;-49
2022/01/30 00:26:33;;;;;;;3.17;1.58;;;;;;;17.68;42.14;102443.75;5105657;28;20036;-51
2022/01/30 00:28:58;;;;;;;3.03;1.60;;;;;;;17.69;42.39;102450.81;5105585;28;20031;-48
2022/01/30 00:31:25;;;;;;;2.85;1.40;;;;;;;17.67;42.33;102455.47;5105888;28;20377;-49
2022/01/30 00:33:51;;;;;;;2.80;1.27;;;;;;;17.67;42.53;102456.34;5106017;28;20052;-50
2022/01/30 00:36:17;;;;;;;2.00;1.08;;;;;;;17.63;42.39;102452.19;5105531;28;20035;-48
2022/01/30 00:38:42;;;;;;;1.95;1.40;;;;;;;17.65;42.15;102457.44;5104872;28;20024;-47
2022/01/30 00:41:07;;;;;;;2.13;1.23;;;;;;;17.63;42.20;102454.88;5103567;28;20396;-52
2022/01/30 00:43:32;;;;;;;4.20;1.70;;;;;;;17.63;42.27;102460.25;5078862;28;20052;-48
2022/01/30 00:45:58;;;;;;;2.78;1.40;;;;;;;17.62;42.23;102461.22;5105745;28;20028;-50
2022/01/30 00:48:23;;;;;;;2.85;1.27;;;;;;;17.60;42.36;102478.47;5105423;28;20084;-50
2022/01/30 00:50:48;;;;;;;2.80;1.40;;;;;;;17.57;42.33;102478.69;5105415;28;20020;-49
2022/01/30 00:53:15;;;;;;;2.75;1.50;;;;;;;17.58;42.24;102470.50;5086667;28;20031;-51
2022/01/30 00:55:40;;;;;;;3.22;1.25;;;;;;;17.57;42.26;102466.09;5104748;28;20032;-50
2022/01/30 00:58:06;;;;;;;3.22;1.48;;;;;;;17.53;42.25;102467.31;5105189;28;20668;-51
2022/01/30 01:00:32;;;;;;;2.83;1.33;;;;;;;17.55;42.26;102468.06;5101349;28;20059;-52
2022/01/30 01:02:57;;;;;;;2.25;1.35;;;;;;;17.55;42.26;102469.91;5084982;28;20032;-51
2022/01/30 01:05:23;;;;;;;1.70;1.15;;;;;;;17.55;42.10;102451.94;5084949;28;20051;-49
2022/01/30 01:07:50;;;;;;;3.10;1.35;;;;;;;17.55;42.08;102445.72;5083835;28;20028;-46
2022/01/30 01:12:59;;;;;;;1.85;1.02;;;;;;;17.53;42.52;102445.81;5084306;28;20024;-46
2022/01/30 01:23:26;;;;;;;2.60;1.55;;;;;;;17.48;42.33;102437.25;5084606;28;20108;-51
2022/01/30 01:23:43;;;;;;;2.22;1.70;;;;;;;17.42;42.21;102441.31;5095547;28;20114;-46
2022/01/30 01:26:08;;;;;;;1.73;1.05;;;;;;;17.44;41.85;102447.41;5104305;28;20480;-50
2022/01/30 01:28:33;;;;;;;3.83;1.35;;;;;;;17.43;42.60;102445.69;5104761;28;20027;-49
2022/01/30 01:30:59;;;;;;;3.15;1.30;;;;;;;17.42;42.32;102451.19;5104833;28;20485;-50
2022/01/30 01:33:29;;;;;;;1.52;1.10;;;;;;;17.41;42.26;102446.78;5105005;28;20032;-45
2022/01/30 01:35:55;;;;;;;2.53;1.27;;;;;;;17.40;42.24;102448.63;5104543;28;20031;-46
2022/01/30 01:38:21;;;;;;;2.17;1.63;;;;;;;17.39;42.10;102457.66;5103986;28;20110;-48
2022/01/30 01:40:51;;;;;;;3.08;1.23;;;;;;;17.37;42.20;102459.59;5103900;28;20027;-50
2022/01/30 01:43:21;;;;;;;2.15;1.10;;;;;;;17.38;42.21;102458.66;5100112;28;20028;-48
2022/01/30 01:45:49;;;;;;;2.60;1.30;;;;;;;17.34;42.19;102456.31;5103436;28;20078;-49
2022/01/30 01:48:15;;;;;;;2.53;1.17;;;;;;;17.33;41.89;102460.84;5069607;28;20020;-48
2022/01/30 01:50:45;;;;;;;2.42;1.50;;;;;;;17.35;42.16;102464.25;5085840;28;20267;-47
2022/01/30 01:53:13;;;;;;;2.25;1.20;;;;;;;17.35;41.97;102468.78;5086082;28;20061;-47
2022/01/30 01:55:40;;;;;;;3.42;1.15;;;;;;;17.34;42.08;102459.00;5103788;28;20028;-47
2022/01/30 01:58:05;;;;;;;2.75;1.35;;;;;;;17.32;41.86;102460.94;5103985;28;20036;-48
2022/01/30 02:00:31;;;;;;;1.95;1.05;;;;;;;17.31;42.03;102460.09;5104195;28;20028;-49
2022/01/30 02:02:57;;;;;;;2.50;1.38;;;;;;;17.29;42.34;102464.75;5104249;28;20077;-48
2022/01/30 02:05:31;;;;;;;1.92;1.08;;;;;;;17.28;42.22;102460.31;5104075;28;20044;-50
2022/01/30 02:10:52;;;;;;;1.98;1.13;;;;;;;17.23;42.24;102454.47;5103327;28;20098;-49
2022/01/30 02:24:28;;;;;;;1.83;1.30;;;;;;;17.21;42.16;102496.75;5103550;28;20063;-49
2022/01/30 02:26:53;;;;;;;2.13;1.02;;;;;;;17.18;41.88;102496.97;5103145;28;20469;-50
2022/01/30 02:29:19;;;;;;;1.95;1.15;;;;;;;17.20;42.13;102497.69;5103616;28;20091;-51
2022/01/30 02:31:45;;;;;;;2.00;1.20;;;;;;;17.19;41.84;102504.06;5100553;28;20260;-50
2022/01/30 02:34:10;;;;;;;2.05;1.10;;;;;;;17.18;42.04;102500.50;5097676;28;20513;-47
2022/01/30 02:36:49;;;;;;;1.92;1.13;;;;;;;17.19;41.98;102507.59;5103404;28;20024;-52
2022/01/30 02:39:14;;;;;;;2.05;0.93;;;;;;;17.17;42.02;102514.09;5103061;28;20024;-48
2022/01/30 02:41:40;;;;;;;2.10;1.10;;;;;;;17.17;41.97;102520.31;5102835;28;20503;-46
2022/01/30 02:44:12;;;;;;;1.35;1.00;;;;;;;17.17;41.98;102514.09;5103461;28;20034;-50
2022/01/30 02:46:43;;;;;;;2.35;1.13;;;;;;;17.11;41.87;102501.94;5103608;28;20481;-47
2022/01/30 02:51:49;;;;;;;1.80;1.08;;;;;;;17.15;41.76;102513.31;5088945;28;20020;-48
2022/01/30 02:54:14;;;;;;;2.58;1.25;;;;;;;17.15;41.78;102518.72;5102471;28;20028;-50
2022/01/30 02:56:40;;;;;;;1.60;1.00;;;;;;;17.14;42.02;102522.38;5103016;28;20024;-44
2022/01/30 02:59:06;;;;;;;2.13;1.25;;;;;;;17.11;42.01;102527.97;5103545;28;20039;-49
2022/01/30 03:01:32;;;;;;;2.50;1.30;;;;;;;17.12;41.85;102527.00;5103716;28;20032;-50
2022/01/30 03:03:58;;;;;;;2.35;1.40;;;;;;;17.11;41.95;102536.03;5105751;28;20393;-49
2022/01/30 03:06:24;;;;;;;1.50;1.15;;;;;;;17.10;41.99;102531.66;5107331;28;20034;-53
2022/01/30 03:08:49;;;;;;;2.22;1.42;;;;;;;17.09;41.97;102538.84;5107198;28;20028;-52
2022/01/30 03:11:14;;;;;;;2.33;1.25;;;;;;;17.08;41.99;102541.66;5106925;28;20032;-53
2022/01/30 03:13:40;;;;;;;1.70;1.33;;;;;;;17.07;41.92;102542.63;5107448;28;20035;-50
2022/01/30 03:16:05;;;;;;;1.77;1.10;;;;;;;17.03;42.05;102544.69;5107439;28;20024;-49
2022/01/30 03:18:33;;;;;;;2.78;1.10;;;;;;;17.05;41.86;102558.03;5107446;28;20095;-47
2022/01/30 03:20:59;;;;;;;1.85;1.15;;;;;;;17.04;41.95;102556.31;5088739;28;20044;-49
2022/01/30 03:23:25;;;;;;;2.88;1.00;;;;;;;17.03;41.96;102560.81;5106637;28;20119;-49
2022/01/30 03:25:56;;;;;;;2.15;1.10;;;;;;;17.03;42.06;102568.88;5106675;28;20087;-49
2022/01/30 03:28:21;;;;;;;2.67;1.30;;;;;;;17.01;41.88;102565.44;5106867;28;20046;-49
2022/01/30 03:30:48;;;;;;;2.40;1.13;;;;;;;17.01;41.94;102561.91;5107095;28;20020;-50
2022/01/30 03:33:13;;;;;;;2.22;1.25;;;;;;;17.02;41.94;102571.69;5106969;28;20087;-51
2022/01/30 03:35:38;;;;;;;2.35;1.20;;;;;;;17.01;41.96;102572.66;5106985;28;20020;-49
2022/01/30 03:38:04;;;;;;;2.45;1.20;;;;;;;17.01;41.83;102572.66;5106378;28;20085;-51
2022/01/30 03:40:29;;;;;;;2.50;1.20;;;;;;;16.99;42.02;102578.13;5106779;28;20020;-48
2022/01/30 03:42:54;;;;;;;2.55;1.55;;;;;;;16.98;41.99;102573.72;5106263;28;20077;-50
2022/01/30 03:45:20;;;;;;;1.58;0.90;;;;;;;16.98;41.94;102577.28;5088614;28;20040;-51
2022/01/30 03:47:45;;;;;;;1.83;1.15;;;;;;;16.94;42.01;102569.56;5106561;28;20497;-49
2022/01/30 03:50:10;;;;;;;2.15;1.17;;;;;;;16.95;41.93;102580.22;5086862;28;20053;-51
2022/01/30 03:52:36;;;;;;;2.45;1.17;;;;;;;16.95;42.23;102585.59;5093835;28;20543;-48
2022/01/30 03:55:01;;;;;;;2.42;1.13;;;;;;;16.95;42.07;102590.09;5106763;28;20039;-49
2022/01/30 03:57:26;;;;;;;1.38;0.82;;;;;;;16.96;41.93;102594.50;5106075;28;20040;-46
2022/01/30 03:59:51;;;;;;;2.22;1.30;;;;;;;16.95;42.02;102598.16;5106581;28;20374;-47
2022/01/30 04:02:16;;;;;;;2.47;1.30;;;;;;;16.94;41.90;102599.97;5106561;28;20404;-46
2022/01/30 04:04:42;;;;;;;2.28;1.17;;;;;;;16.94;42.33;102607.19;5106545;28;20097;-51
2022/01/30 04:07:07;;;;;;;1.48;1.10;;;;;;;16.94;41.93;102593.75;5106038;28;20032;-47
2022/01/30 04:09:33;;;;;;;1.08;0.93;;;;;;;16.93;41.99;102605.47;5106444;28;20081;-49
2022/01/30 04:11:58;;;;;;;1.63;1.20;;;;;;;16.89;42.09;102593.22;5105979;28;20028;-48
2022/01/30 04:14:24;;;;;;;2.45;1.25;;;;;;;16.92;41.99;102598.38;5106411;28;20055;-50
2022/01/30 04:16:49;;;;;;;2.22;1.20;;;;;;;16.91;41.99;102596.69;5106683;28;20028;-51
2022/01/30 04:19:15;;;;;;;1.88;0.98;;;;;;;16.88;42.07;102597.75;5105616;28;20100;-47
2022/01/30 04:21:40;;;;;;;1.92;1.23;;;;;;;16.88;41.95;102597.75;5105958;28;20016;-48
2022/01/30 04:24:06;;;;;;;1.73;1.20;;;;;;;16.89;41.86;102612.03;5105852;28;20027;-49
2022/01/30 04:26:31;;;;;;;2.53;1.35;;;;;;;16.89;42.00;102614.72;5105644;28;20062;-47
2022/01/30 04:28:57;;;;;;;1.77;1.08;;;;;;;16.88;41.96;102613.88;5087536;28;20031;-49
2022/01/30 04:31:22;;;;;;;2.53;1.58;;;;;;;16.89;42.10;102620.09;5106221;28;20032;-49
2022/01/30 04:33:48;;;;;;;2.17;1.10;;;;;;;16.88;42.08;102624.63;5106090;28;20016;-48
2022/01/30 04:36:19;;;;;;;1.83;0.80;;;;;;;16.86;41.98;102623.84;5105638;28;20079;-51
2022/01/30 04:38:58;;;;;;;2.03;1.02;;;;;;;16.87;42.03;102636.34;5105296;28;20020;-47
2022/01/30 04:52:25;;;;;;;1.90;1.25;;;;;;;16.85;42.13;102632.03;5088251;28;20043;-49
2022/01/30 05:07:51;;;;;;;1.92;1.08;;;;;;;16.84;42.03;102614.22;5086647;28;20052;-48
2022/01/30 05:10:16;;;;;;;1.00;0.90;;;;;;;16.85;41.99;102626.66;5105083;28;20023;-49
2022/01/30 05:12:50;;;;;;;1.70;0.95;;;;;;;16.83;42.02;102610.69;5104511;28;20472;-50
2022/01/30 05:15:18;;;;;;;1.92;1.13;;;;;;;16.83;42.03;102610.69;5105367;28;20091;-51
2022/01/30 05:17:44;;;;;;;1.88;0.93;;;;;;;16.84;41.93;102627.66;5104884;28;20020;-54
2022/01/30 05:20:10;;;;;;;1.90;1.00;;;;;;;16.79;42.07;102624.44;5105070;28;20034;-51
2022/01/30 05:22:35;;;;;;;1.70;1.13;;;;;;;16.84;42.03;102636.56;5104793;28;20039;-48
2022/01/30 05:25:01;;;;;;;1.23;0.88;;;;;;;16.82;42.04;102640.31;5104651;28;20035;-49
2022/01/30 05:27:26;;;;;;;2.03;1.20;;;;;;;16.83;42.10;102647.44;5103537;28;20031;-48
2022/01/30 05:29:52;;;;;;;3.75;1.40;;;;;;;16.81;42.07;102630.56;5104811;28;20043;-47
2022/01/30 05:32:17;;;;;;;1.92;1.25;;;;;;;16.82;41.96;102637.63;5104793;28;20088;-49
2022/01/30 05:34:43;;;;;;;1.88;1.15;;;;;;;16.82;42.06;102616.16;5105269;28;20044;-48
2022/01/30 05:37:09;;;;;;;2.42;1.00;;;;;;;16.79;42.36;102621.75;5104480;28;20046;-47
2022/01/30 05:39:34;;;;;;;1.73;0.90;;;;;;;16.82;42.03;102629.56;5104287;28;20024;-50
2022/01/30 05:42:00;;;;;;;2.25;1.10;;;;;;;16.81;42.11;102627.88;5096190;28;20024;-48
2022/01/30 05:44:39;;;;;;;2.40;1.17;;;;;;;16.81;42.13;102625.19;5092198;28;20036;-47
2022/01/30 05:47:08;;;;;;;1.10;1.00;;;;;;;16.80;42.12;102620.78;5104013;28;20027;-50
2022/01/30 05:49:34;;;;;;;2.90;1.05;;;;;;;16.79;42.12;102630.69;5083395;28;20020;-51
2022/01/30 05:51:59;;;;;;;2.08;1.30;;;;;;;16.80;42.30;102632.38;5082314;28;20092;-50
2022/01/30 05:54:24;;;;;;;1.60;1.10;;;;;;;16.79;42.20;102640.56;5103481;28;20093;-50
2022/01/30 05:56:50;;;;;;;1.90;1.00;;;;;;;16.79;42.21;102638.72;5103355;28;20074;-50
2022/01/30 05:59:15;;;;;;;1.48;1.13;;;;;;;16.78;42.18;102637.03;5103632;28;20047;-51
2022/01/30 06:01:41;;;;;;;3.00;1.70;;;;;;;16.79;42.27;102638.72;5096628;28;20031;-46
2022/01/30 06:04:06;;;;;;;1.88;1.13;;;;;;;16.79;42.25;102641.41;5083716;28;20020;-46
2022/01/30 06:06:31;;;;;;;1.50;1.00;;;;;;;16.79;42.37;102633.38;5085760;28;20035;-50
2022/01/30 06:09:18;;;;;;;1.92;1.00;;;;;;;16.80;42.40;102636.91;5103809;28;20039;-47
2022/01/30 06:11:45;;;;;;;3.58;2.38;;;;;;;16.78;42.40;102639.72;5102967;28;20020;-49
2022/01/30 06:14:11;;;;;;;2.65;1.45;;;;;;;16.79;42.46;102648.63;5103377;28;20376;-46
2022/01/30 06:16:36;;;;;;;2.50;1.15;;;;;;;16.81;42.45;102647.53;5103460;28;20020;-49
2022/01/30 06:19:01;;;;;;;1.02;0.90;;;;;;;16.79;42.77;102649.47;5091852;28;20024;-47
2022/01/30 06:21:27;;;;;;;2.13;1.60;;;;;;;16.80;42.59;102659.25;5083790;28;20032;-48
2022/01/30 06:23:53;;;;;;;1.52;1.23;;;;;;;16.80;42.79;102661.94;5082920;28;20111;-47
2022/01/30 06:26:18;;;;;;;2.45;1.35;;;;;;;16.79;42.98;102656.69;5082837;28;20660;-47
2022/01/30 06:28:43;;;;;;;3.08;1.40;;;;;;;16.79;42.59;102676.34;5083115;28;20028;-48
2022/01/30 06:31:08;;;;;;;2.30;1.13;;;;;;;16.76;42.79;102681.06;5065437;28;20542;-45
2022/01/30 06:33:33;;;;;;;1.77;1.15;;;;;;;16.79;42.71;102687.09;5090607;28;20055;-47
2022/01/30 06:35:59;;;;;;;1.92;1.20;;;;;;;16.78;43.04;102685.38;5102810;28;20027;-49
2022/01/30 06:38:24;;;;;;;2.38;1.20;;;;;;;16.79;42.84;102695.16;5101121;28;20016;-49
2022/01/30 06:40:49;;;;;;;2.22;1.35;;;;;;;16.78;42.81;102696.13;5102478;28;20027;-46
2022/01/30 06:43:14;;;;;;;2.55;1.40;;;;;;;16.78;42.81;102685.38;5085047;28;20023;-47
2022/01/30 06:45:42;;;;;;;3.38;1.23;;;;;;;16.79;42.82;102686.22;5101020;28;20024;-48
2022/01/30 06:48:07;;;;;;;2.65;1.17;;;;;;;16.79;42.80;102687.09;5090928;28;20035;-46
2022/01/30 06:50:32;;;;;;;2.63;1.02;;;;;;;16.79;42.97;102700.53;5091314;28;20016;-48
2022/01/30 06:52:58;;;;;;;2.13;1.10;;;;;;;16.78;42.93;102696.13;5097563;28;20489;-46
2022/01/30 06:55:23;;;;;;;1.73;1.38;;;;;;;16.79;42.95;102697.84;5103013;28;20032;-46
2022/01/30 06:57:48;;;;;;;2.30;1.45;;;;;;;16.78;43.01;102698.81;5102171;28;20012;-49
2022/01/30 07:00:14;;;;;;;2.03;1.33;;;;;;;16.79;42.95;102700.53;5102948;28;20641;-49
2022/01/30 07:02:39;;;;;;;2.47;1.35;;;;;;;16.80;42.93;102698.69;5097911;28;20039;-51
2022/01/30 07:05:05;;;;;;;2.42;1.25;;;;;;;16.84;42.92;102710.94;5097045;28;20128;-50
2022/01/30 07:07:30;;;;;;;5.57;2.22;;;;;;;16.85;43.10;102710.81;5102177;28;20031;-49
2022/01/30 07:09:56;;;;;;;5.57;1.95;;;;;;;16.88;42.95;102715.97;5089457;28;20421;-50
2022/01/30 07:12:21;;;;;;;5.55;1.83;;;;;;;16.90;43.08;102713.16;5090362;28;20550;-47
2022/01/30 07:14:46;;;;;;;4.47;1.80;;;;;;;16.90;42.92;102716.69;5088452;28;20024;-50
2022/01/30 07:17:12;;;;;;;4.10;1.73;;;;;;;16.89;42.96;102708.75;5087191;28;20031;-52
2022/01/30 07:19:37;;;;;;;5.80;2.13;;;;;;;16.93;42.96;102711.09;5102435;28;20031;-51
2022/01/30 07:22:02;;;;;;;7.03;2.00;;;;;;;16.94;42.99;102712.81;5102325;28;20039;-48
2022/01/30 07:24:27;;;;;;;6.50;2.40;;;;;;;16.95;42.88;102711.88;5102474;28;20046;-47
2022/01/30 07:26:53;;;;;;;5.18;2.03;;;;;;;16.95;42.91;102714.56;5102075;28;20039;-51
2022/01/30 07:29:18;;;;;;;4.55;2.28;;;;;;;16.97;42.88;102717.97;5102550;28;20023;-52
2022/01/30 07:31:43;;;;;;;7.28;2.90;;;;;;;16.96;42.88;102720.78;5097045;28;20020;-49
2022/01/30 07:34:08;;;;;;;7.72;2.95;;;;;;;16.96;43.04;102731.53;5082561;28;20048;-49
2022/01/30 07:36:35;;;;;;;5.85;2.20;;;;;;;16.97;42.95;102734.09;5070005;28;20032;-51
2022/01/30 07:39:01;;;;;;;6.10;2.80;;;;;;;16.98;42.74;102748.38;5082094;28;20088;-52
2022/01/30 07:41:26;;;;;;;7.07;2.58;;;;;;;16.97;42.90;102739.47;5100717;28;20020;-50
2022/01/30 07:43:52;;;;;;;5.82;2.28;;;;;;;16.99;43.08;102733.97;5101856;28;20028;-51
2022/01/30 07:46:17;;;;;;;5.70;2.28;;;;;;;16.99;43.01;102732.19;5102687;28;20154;-49
2022/01/30 07:48:42;;;;;;;6.22;2.35;;;;;;;17.01;42.80;102731.19;5102403;28;20097;-47
2022/01/30 07:51:08;;;;;;;5.95;2.33;;;;;;;17.01;42.92;102744.63;5100943;28;20062;-51
2022/01/30 07:53:33;;;;;;;7.90;2.63;;;;;;;17.03;42.88;102753.44;5104133;28;20503;-49
2022/01/30 07:55:58;;;;;;;5.82;2.20;;;;;;;16.99;42.84;102753.66;5085792;28;20054;-51
2022/01/30 07:58:24;;;;;;;6.32;2.28;;;;;;;17.02;42.99;102757.09;5068420;28;20078;-48
2022/01/30 08:00:49;;;;;;;5.43;2.40;;;;;;;17.06;42.76;102759.44;5099092;28;20038;-49
2022/01/30 08:03:14;;;;;;;4.97;2.28;;;;;;;17.08;42.64;102767.41;5094617;28;20036;-50
2022/01/30 08:05:43;;;;;;;5.50;2.08;;;;;;;17.05;42.91;102768.47;5103217;28;20146;-53
2022/01/30 08:08:08;;;;;;;6.30;2.22;;;;;;;17.06;42.73;102774.72;5103288;28;20028;-52
2022/01/30 08:10:34;;;;;;;5.10;2.17;;;;;;;17.12;42.63;102779.63;5099064;28;20032;-50
2022/01/30 08:12:59;;;;;;;6.65;2.55;;;;;;;17.13;42.64;102790.28;5085364;28;20032;-49
2022/01/30 08:15:25;;;;;;;6.45;2.63;;;;;;;17.16;42.55;102790.06;5101219;28;20024;-48
2022/01/30 08:17:50;;;;;;;7.05;2.53;;;;;;;17.17;42.56;102797.16;5102675;28;20028;-52
2022/01/30 08:20:15;;;;;;;8.07;2.85;;;;;;;17.18;42.50;102798.03;5105428;28;20036;-50
2022/01/30 08:22:45;;;;;;;7.43;2.70;;;;;;;17.22;42.51;102797.69;5098346;28;20046;-50
2022/01/30 08:25:11;;;;;;;5.53;2.75;;;;;;;17.26;42.46;102801.00;5097366;28;20084;-52
2022/01/30 08:27:36;;;;;;;5.78;2.75;;;;;;;17.31;42.18;102800.66;5105514;28;20056;-49
2022/01/30 08:30:01;;;;;;;4.88;2.22;;;;;;;17.38;42.17;102799.25;5087505;28;20594;-50
2022/01/30 08:32:27;;;;;;;8.75;2.60;;;;;;;17.39;42.19;102799.13;5105888;28;20050;-51
2022/01/30 08:34:52;;;;;;;6.20;2.60;;;;;;;17.38;42.03;102800.13;5105680;28;20050;-49
2022/01/30 08:37:17;;;;;;;6.80;2.78;;;;;;;17.40;42.01;102800.84;5105421;28;20077;-48
2022/01/30 08:39:42;;;;;;;5.55;2.38;;;;;;;17.39;41.70;102801.81;5105242;28;20088;-48
2022/01/30 08:42:08;;;;;;;5.07;2.45;;;;;;;17.41;41.82;102799.88;5105161;28;20031;-48
2022/01/30 08:44:33;;;;;;;8.05;2.85;;;;;;;17.41;41.95;102805.25;5105253;28;20558;-51
2022/01/30 08:46:59;;;;;;;6.20;2.60;;;;;;;17.41;41.85;102799.00;5105216;28;20088;-48
2022/01/30 08:49:24;;;;;;;7.32;2.83;;;;;;;17.44;41.88;102812.25;5105140;28;20092;-49
2022/01/30 08:51:50;;;;;;;6.80;2.85;;;;;;;17.50;41.57;102814.50;5098106;28;20032;-50
2022/01/30 08:54:15;;;;;;;6.15;2.47;;;;;;;17.62;41.85;102823.47;5091242;28;20039;-50
2022/01/30 08:56:40;;;;;;;8.13;2.28;;;;;;;17.73;41.54;102818.16;5104613;28;20024;-49
2022/01/30 08:59:06;;;;;;;7.63;3.10;;;;;;;17.86;41.18;102823.50;5104630;28;20016;-49
2022/01/30 09:01:33;;;;;;;7.60;2.63;;;;;;;18.01;41.01;102822.38;5103642;28;20077;-48
2022/01/30 09:03:59;;;;;;;7.82;2.63;;;;;;;18.25;40.83;102814.22;5103069;28;20057;-51
2022/01/30 09:06:24;;;;;;;7.95;2.47;;;;;;;18.49;40.21;102812.34;5092678;28;20040;-47
2022/01/30 09:08:50;;;;;;;8.27;2.78;;;;;;;18.81;39.92;102821.59;5104059;28;20111;-50
2022/01/30 09:11:15;;;;;;;7.03;2.30;;;;;;;19.02;39.41;102824.41;5086184;28;20024;-48
2022/01/30 09:13:40;;;;;;;7.05;2.72;;;;;;;19.07;39.09;102822.19;5084440;28;20099;-50
2022/01/30 09:16:05;;;;;;;5.65;2.40;;;;;;;19.18;39.08;102828.44;5071829;28;20119;-47
2022/01/30 09:18:31;;;;;;;8.40;2.20;;;;;;;19.21;38.67;102830.91;5087304;28;20017;-49
2022/01/30 09:20:56;;;;;;;8.48;3.05;;;;;;;19.34;38.78;102835.31;5096527;28;20041;-50
2022/01/30 09:23:21;;;;;;;4.97;2.08;;;;;;;19.54;38.18;102836.34;5100848;28;20027;-52
2022/01/30 09:25:47;;;;;;;7.70;2.65;;;;;;;19.55;38.33;102836.25;5104056;28;20036;-52
2022/01/30 09:28:12;;;;;;;5.97;2.28;;;;;;;19.44;38.35;102844.34;5104384;28;20042;-50
2022/01/30 09:30:38;;;;;;;8.75;2.58;;;;;;;19.33;38.60;102853.34;5092485;28;20073;-50
2022/01/30 09:33:03;;;;;;;7.82;2.92;;;;;;;19.34;38.77;102846.09;5091268;28;20103;-51
2022/01/30 09:35:29;;;;;;;7.15;2.45;;;;;;;19.44;38.33;102850.59;5084504;28;20024;-48
2022/01/30 09:37:54;;;;;;;8.00;2.90;;;;;;;19.75;38.37;102861.59;5085637;28;20028;-50
2022/01/30 09:40:19;;;;;;;6.47;2.30;;;;;;;19.94;38.15;102856.41;5103482;28;20061;-49
2022/01/30 09:42:46;;;;;;;8.90;2.70;;;;;;;20.08;37.53;102863.34;5103978;28;20083;-47
2022/01/30 09:45:13;;;;;;;7.88;2.90;;;;;;;20.09;37.46;102862.38;5104509;28;20027;-46
2022/01/30 09:47:39;;;;;;;5.85;2.30;;;;;;;20.03;37.07;102854.78;5104550;28;20023;-50
2022/01/30 09:50:06;;;;;;;7.57;2.40;;;;;;;19.94;37.40;102872.59;5103205;28;20034;-48
2022/01/30 09:52:32;;;;;;;6.28;2.20;;;;;;;19.85;37.46;102869.81;5083837;28;20032;-49
2022/01/30 09:54:57;;;;;;;7.05;2.30;;;;;;;19.69;37.58;102864.81;5083761;28;20063;-49
2022/01/30 09:57:23;;;;;;;5.75;2.05;;;;;;;19.63;37.60;102873.44;5083482;28;20685;-49
2022/01/30 09:59:48;;;;;;;11.00;2.92;;;;;;;19.59;37.54;102877.34;5083880;28;20098;-47
2022/01/30 10:02:13;;;;;;;10.45;2.90;;;;;;;19.51;37.56;102877.97;5103868;28;20032;-49
2022/01/30 10:04:39;;;;;;;8.57;2.58;;;;;;;19.47;37.66;102880.03;5103998;28;20052;-49
2022/01/30 10:07:12;;;;;;;8.25;2.90;;;;;;;19.44;37.84;102879.44;5103850;28;20031;-47
2022/01/30 10:09:44;;;;;;;8.27;2.70;;;;;;;19.42;37.88;102882.25;5103609;28;20069;-50
2022/01/30 10:12:15;;;;;;;6.53;2.53;;;;;;;19.41;37.76;102877.84;5103230;28;20020;-47
2022/01/30 10:14:53;;;;;;;6.95;3.25;;;;;;;19.38;37.98;102886.19;5103923;28;20027;-52
2022/01/30 10:17:36;;;;;;;6.85;2.53;;;;;;;19.33;37.64;102883.00;5104098;28;20016;-47
2022/01/30 10:20:11;;;;;;;9.98;3.05;;;;;;;19.30;37.88;102882.41;5103891;28;20031;-48
2022/01/30 10:22:57;;;;;;;7.53;2.83;;;;;;;19.23;37.74;102890.97;5103440;28;20043;-47
2022/01/30 10:25:25;;;;;;;7.30;3.00;;;;;;;19.13;38.11;102887.28;5103740;28;20093;-46
2022/01/30 10:28:10;;;;;;;8.85;3.00;;;;;;;19.02;38.09;102884.56;5103284;28;20128;-51
2022/01/30 10:30:46;;;;;;;8.50;3.40;;;;;;;18.91;38.48;102889.97;5103540;28;20023;-48
2022/01/30 10:33:13;;;;;;;7.78;3.30;;;;;;;18.82;38.49;102894.25;5103759;28;20028;-47
2022/01/30 10:35:52;;;;;;;6.72;3.33;;;;;;;18.74;38.73;102896.69;5103424;28;20024;-48
2022/01/30 10:38:29;;;;;;;6.47;2.83;;;;;;;18.66;38.85;102893.69;5103249;28;20035;-50
2022/01/30 10:41:09;;;;;;;11.30;3.00;;;;;;;18.59;38.82;102895.13;5103011;28;20176;-46
2022/01/30 10:43:54;;;;;;;7.63;2.97;;;;;;;18.56;39.06;102903.44;5103706;28;20034;-49
2022/01/30 10:46:26;;;;;;;9.35;3.28;;;;;;;18.54;39.04;102905.41;5103597;28;20023;-48
2022/01/30 10:49:00;;;;;;;8.65;3.15;;;;;;;18.54;39.10;102902.72;5103787;28;20024;-48
2022/01/30 10:51:27;;;;;;;10.75;3.90;;;;;;;18.54;39.22;102903.56;5091169;28;20183;-47
2022/01/30 10:53:53;;;;;;;8.35;2.78;;;;;;;18.56;39.27;102906.13;5088763;28;20078;-50
2022/01/30 10:56:20;;;;;;;8.10;3.05;;;;;;;18.59;39.00;102908.59;5102291;28;20028;-48
2022/01/30 10:59:08;;;;;;;8.15;3.25;;;;;;;18.62;38.92;102906.53;5094970;28;20409;-47
2022/01/30 11:01:33;;;;;;;9.80;3.22;;;;;;;18.63;39.03;102908.25;5099493;28;20032;-47
2022/01/30 11:04:00;;;;;;;11.20;4.60;;;;;;;18.67;38.95;102906.19;5093744;28;20026;-51
2022/01/30 11:06:28;;;;;;;17.27;6.22;;;;;;;18.70;39.02;102903.28;5100829;28;20116;-46
2022/01/30 11:08:54;;;;;;;20.35;8.23;;;;;;;18.71;38.99;102905.00;5103021;28;20078;-49
2022/01/30 11:11:32;;;;;;;30.35;11.02;;;;;;;18.78;39.03;102906.25;5102501;28;20024;-49
2022/01/30 11:14:16;;;;;;;35.25;12.95;;;;;;;18.80;39.01;102900.72;5103349;28;20030;-47
2022/01/30 11:19:26;;;;;;;31.13;12.52;;;;;;;18.90;39.12;102899.91;5103499;28;20088;-49
2022/01/30 11:21:55;;;;;;;34.08;13.40;;;;;;;18.95;39.10;102905.78;5102783;28;20055;-51
2022/01/30 11:24:23;;;;;;;35.60;13.27;;;;;;;18.98;39.38;102907.38;5104407;28;20024;-50
2022/01/30 11:26:48;;;;;;;41.13;13.82;;;;;;;19.01;39.07;102903.59;5106645;28;20016;-51
2022/01/30 11:29:16;;;;;;;32.42;14.32;;;;;;;19.03;39.22;102902.50;5098176;28;20039;-52
2022/01/30 11:31:42;;;;;;;36.70;13.83;;;;;;;19.04;39.33;102897.97;5101012;28;20020;-47
2022/01/30 11:34:08;;;;;;;32.33;13.55;;;;;;;19.05;39.24;102894.28;5098052;28;20016;-48
2022/01/30 11:36:40;;;;;;;32.03;14.23;;;;;;;19.09;39.34;102898.44;5100622;28;20035;-46
2022/01/30 11:39:06;;;;;;;32.78;14.32;;;;;;;19.12;39.19;102898.22;5097235;28;20016;-47
2022/01/30 11:41:34;;;;;;;33.53;14.10;;;;;;;19.15;39.17;102892.56;5101063;28;20122;-51
2022/01/30 11:44:17;;;;;;;29.58;13.32;;;;;;;19.16;39.00;102897.00;5106611;28;20038;-52
2022/01/30 11:46:53;;;;;;;36.65;13.13;;;;;;;19.17;39.25;102898.69;5105957;28;20111;-50
2022/01/30 11:49:19;;;;;;;29.58;12.93;;;;;;;19.16;39.47;102907.78;5104088;28;20016;-48
2022/01/30 11:51:48;;;;;;;30.00;11.98;;;;;;;19.15;39.21;102890.72;5105079;28;20020;-49
2022/01/30 11:54:42;;;;;;;30.13;12.68;;;;;;;19.15;39.54;102892.56;5100439;28;20020;-50
2022/01/30 11:57:22;;;;;;;28.77;12.32;;;;;;;19.15;39.39;102888.00;5085738;28;20029;-47
2022/01/30 11:59:55;;;;;;;23.83;11.23;;;;;;;19.16;39.51;102889.75;5087226;28;20016;-50
2022/01/30 12:02:23;;;;;;;28.90;12.52;;;;;;;19.17;39.30;102896.00;5106481;28;20028;-51
2022/01/30 12:05:03;;;;;;;28.95;12.57;;;;;;;19.20;39.26;102898.47;5106551;28;20106;-52
2022/01/30 12:07:39;;;;;;;32.88;13.52;;;;;;;19.23;39.52;102903.59;5106108;28;20055;-53
2022/01/30 12:10:19;;;;;;;28.00;11.13;;;;;;;19.25;39.40;102898.09;5106104;28;20613;-50
2022/01/30 12:12:56;;;;;;;27.25;10.88;;;;;;;19.25;39.18;102904.34;5105871;28;20030;-50
2022/01/30 12:15:59;;;;;;;32.53;11.50;;;;;;;19.22;39.12;102897.34;5106508;28;20058;-53
2022/01/30 12:18:46;;;;;;;27.35;12.23;;;;;;;19.21;39.23;102892.94;5003893;28;20109;-52